sensor_id;sensor_type;location;lat;lon;timestamp;pressure;altitude;pressure_sealevel;temperature;humidity
40946;BME280;55635;50.264;11.918;2023-09-30T00:00:35;96210.56;;;19.72;69.89
40946;BME280;55635;50.264;11.918;2023-09-30T00:03:17;96213.00;;;19.74;69.83
40946;BME280;55635;50.264;11.918;2023-09-30T00:05:58;96213.81;;;19.74;69.73
40946;BME280;55635;50.264;11.918;2023-09-30T00:08:39;96229.06;;;19.80;70.21
40946;BME280;55635;50.264;11.918;2023-09-30T00:11:20;96232.59;;;19.63;71.75
40946;BME280;55635;50.264;11.918;2023-09-30T00:14:01;96241.66;;;19.50;72.92
40946;BME280;55635;50.264;11.918;2023-09-30T00:16:41;96239.88;;;19.44;74.00
40946;BME280;55635;50.264;11.918;2023-09-30T00:19:22;96240.75;;;19.56;74.23
40946;BME280;55635;50.264;11.918;2023-09-30T00:22:03;96242.19;;;19.40;75.38
40946;BME280;55635;50.264;11.918;2023-09-30T00:24:44;96244.34;;;19.50;75.61
40946;BME280;55635;50.264;11.918;2023-09-30T00:27:25;96242.50;;;19.50;75.76
40946;BME280;55635;50.264;11.918;2023-09-30T00:30:07;96242.69;;;19.49;76.25
40946;BME280;55635;50.264;11.918;2023-09-30T00:32:49;96248.59;;;19.39;77.12
40946;BME280;55635;50.264;11.918;2023-09-30T00:35:35;96240.22;;;19.29;78.03
40946;BME280;55635;50.264;11.918;2023-09-30T00:38:15;96255.22;;;19.19;79.64
40946;BME280;55635;50.264;11.918;2023-09-30T00:40:56;96256.13;;;19.31;78.52
40946;BME280;55635;50.264;11.918;2023-09-30T00:43:37;96257.00;;;19.25;79.42
40946;BME280;55635;50.264;11.918;2023-09-30T00:46:32;96240.66;;;19.26;78.99
40946;BME280;55635;50.264;11.918;2023-09-30T00:49:14;96255.22;;;19.37;78.74
40946;BME280;55635;50.264;11.918;2023-09-30T00:51:55;96259.84;;;19.30;78.70
40946;BME280;55635;50.264;11.918;2023-09-30T00:54:37;96259.19;;;19.34;79.07
40946;BME280;55635;50.264;11.918;2023-09-30T00:57:20;96260.66;;;19.30;79.51
40946;BME280;55635;50.264;11.918;2023-09-30T01:00:02;96259.56;;;19.20;79.76
40946;BME280;55635;50.264;11.918;2023-09-30T01:02:44;96253.63;;;19.11;80.60
40946;BME280;55635;50.264;11.918;2023-09-30T01:05:24;96262.06;;;19.15;80.08
40946;BME280;55635;50.264;11.918;2023-09-30T01:08:05;96265.00;;;19.13;80.99
40946;BME280;55635;50.264;11.918;2023-09-30T01:10:47;96260.56;;;19.00;82.17
40946;BME280;55635;50.264;11.918;2023-09-30T01:13:36;96268.56;;;19.07;81.84
40946;BME280;55635;50.264;11.918;2023-09-30T01:16:17;96276.59;;;19.14;81.67
40946;BME280;55635;50.264;11.918;2023-09-30T01:18:58;96278.34;;;19.01;83.10
40946;BME280;55635;50.264;11.918;2023-09-30T01:21:39;96288.00;;;18.84;84.72
40946;BME280;55635;50.264;11.918;2023-09-30T01:24:20;96284.56;;;18.77;85.27
40946;BME280;55635;50.264;11.918;2023-09-30T01:27:01;96286.19;;;18.47;88.34
40946;BME280;55635;50.264;11.918;2023-09-30T01:29:42;96292.00;;;18.44;89.24
40946;BME280;55635;50.264;11.918;2023-09-30T01:32:23;96301.69;;;18.14;92.30
40946;BME280;55635;50.264;11.918;2023-09-30T01:35:05;96311.13;;;17.91;93.52
40946;BME280;55635;50.264;11.918;2023-09-30T01:37:46;96308.91;;;17.75;93.93
40946;BME280;55635;50.264;11.918;2023-09-30T01:40:27;96304.81;;;17.73;94.04
40946;BME280;55635;50.264;11.918;2023-09-30T01:43:10;96307.09;;;17.69;93.96
40946;BME280;55635;50.264;11.918;2023-09-30T01:45:54;96318.00;;;17.68;93.09
40946;BME280;55635;50.264;11.918;2023-09-30T01:48:35;96320.75;;;17.61;91.85
40946;BME280;55635;50.264;11.918;2023-09-30T01:51:16;96326.94;;;17.49;91.06
40946;BME280;55635;50.264;11.918;2023-09-30T01:53:57;96325.25;;;17.54;90.60
40946;BME280;55635;50.264;11.918;2023-09-30T01:56:38;96324.69;;;17.46;89.92
40946;BME280;55635;50.264;11.918;2023-09-30T01:59:19;96328.97;;;17.53;90.35
40946;BME280;55635;50.264;11.918;2023-09-30T02:02:00;96325.91;;;17.43;90.60
40946;BME280;55635;50.264;11.918;2023-09-30T02:04:42;96333.94;;;17.43;88.37
40946;BME280;55635;50.264;11.918;2023-09-30T02:07:24;96341.19;;;17.29;88.24
40946;BME280;55635;50.264;11.918;2023-09-30T02:10:05;96338.72;;;17.28;88.23
40946;BME280;55635;50.264;11.918;2023-09-30T02:12:47;96332.31;;;17.35;88.50
40946;BME280;55635;50.264;11.918;2023-09-30T02:15:28;96345.09;;;17.40;86.49
40946;BME280;55635;50.264;11.918;2023-09-30T02:18:10;96345.72;;;17.29;85.67
40946;BME280;55635;50.264;11.918;2023-09-30T02:20:50;96343.28;;;17.21;85.55
40946;BME280;55635;50.264;11.918;2023-09-30T02:23:31;96347.16;;;17.25;85.16
40946;BME280;55635;50.264;11.918;2023-09-30T02:26:12;96352.16;;;17.21;85.05
40946;BME280;55635;50.264;11.918;2023-09-30T02:28:53;96356.88;;;17.26;84.76
40946;BME280;55635;50.264;11.918;2023-09-30T02:31:34;96347.00;;;17.13;86.04
40946;BME280;55635;50.264;11.918;2023-09-30T02:34:16;96360.63;;;17.12;85.92
40946;BME280;55635;50.264;11.918;2023-09-30T02:36:57;96362.88;;;17.08;85.88
40946;BME280;55635;50.264;11.918;2023-09-30T02:39:40;96364.53;;;17.09;85.24
40946;BME280;55635;50.264;11.918;2023-09-30T02:42:21;96355.44;;;17.04;85.44
40946;BME280;55635;50.264;11.918;2023-09-30T02:45:07;96358.16;;;16.91;84.07
40946;BME280;55635;50.264;11.918;2023-09-30T02:47:51;96369.69;;;16.84;84.61
40946;BME280;55635;50.264;11.918;2023-09-30T02:50:32;96378.50;;;16.59;84.19
40946;BME280;55635;50.264;11.918;2023-09-30T02:53:14;96391.91;;;16.72;83.29
40946;BME280;55635;50.264;11.918;2023-09-30T02:55:55;96389.84;;;16.67;84.47
40946;BME280;55635;50.264;11.918;2023-09-30T02:58:37;96391.91;;;16.72;83.89
40946;BME280;55635;50.264;11.918;2023-09-30T03:01:19;96405.50;;;16.77;84.63
40946;BME280;55635;50.264;11.918;2023-09-30T03:04:01;96392.13;;;16.77;83.18
40946;BME280;55635;50.264;11.918;2023-09-30T03:06:43;96396.88;;;16.81;82.34
40946;BME280;55635;50.264;11.918;2023-09-30T03:09:25;96392.72;;;16.79;82.60
40946;BME280;55635;50.264;11.918;2023-09-30T03:12:07;96392.34;;;16.88;82.22
40946;BME280;55635;50.264;11.918;2023-09-30T03:14:49;96393.78;;;16.71;81.40
40946;BME280;55635;50.264;11.918;2023-09-30T03:17:31;96383.63;;;16.54;81.80
40946;BME280;55635;50.264;11.918;2023-09-30T03:20:13;96392.59;;;16.20;80.49
40946;BME280;55635;50.264;11.918;2023-09-30T03:22:57;96394.47;;;16.39;80.89
40946;BME280;55635;50.264;11.918;2023-09-30T03:25:38;96396.34;;;16.45;79.71
40946;BME280;55635;50.264;11.918;2023-09-30T03:28:19;96391.63;;;16.47;79.26
40946;BME280;55635;50.264;11.918;2023-09-30T03:31:00;96388.28;;;16.25;79.43
40946;BME280;55635;50.264;11.918;2023-09-30T03:33:41;96395.94;;;16.35;79.02
40946;BME280;55635;50.264;11.918;2023-09-30T03:36:22;96404.97;;;16.34;78.83
40946;BME280;55635;50.264;11.918;2023-09-30T03:39:05;96408.09;;;16.38;78.05
40946;BME280;55635;50.264;11.918;2023-09-30T03:41:48;96408.47;;;16.28;79.62
40946;BME280;55635;50.264;11.918;2023-09-30T03:44:29;96415.44;;;16.22;78.80
40946;BME280;55635;50.264;11.918;2023-09-30T03:47:10;96424.34;;;16.29;78.89
40946;BME280;55635;50.264;11.918;2023-09-30T03:49:52;96426.56;;;16.26;78.15
40946;BME280;55635;50.264;11.918;2023-09-30T03:52:35;96424.31;;;16.36;76.84
40946;BME280;55635;50.264;11.918;2023-09-30T03:55:19;96421.81;;;16.21;77.21
40946;BME280;55635;50.264;11.918;2023-09-30T03:58:01;96435.38;;;16.13;78.19
40946;BME280;55635;50.264;11.918;2023-09-30T04:00:45;96443.28;;;16.34;77.91
40946;BME280;55635;50.264;11.918;2023-09-30T04:03:26;96417.63;;;16.06;76.60
40946;BME280;55635;50.264;11.918;2023-09-30T04:06:10;96431.59;;;15.95;78.31
40946;BME280;55635;50.264;11.918;2023-09-30T04:08:51;96426.69;;;16.05;77.86
40946;BME280;55635;50.264;11.918;2023-09-30T04:11:32;96426.22;;;15.95;79.06
40946;BME280;55635;50.264;11.918;2023-09-30T04:14:13;96428.56;;;16.11;78.48
40946;BME280;55635;50.264;11.918;2023-09-30T04:16:54;96424.28;;;16.16;77.61
40946;BME280;55635;50.264;11.918;2023-09-30T04:19:35;96411.66;;;16.04;78.39
40946;BME280;55635;50.264;11.918;2023-09-30T04:22:16;96417.19;;;15.96;78.19
40946;BME280;55635;50.264;11.918;2023-09-30T04:24:57;96428.16;;;16.07;78.05
40946;BME280;55635;50.264;11.918;2023-09-30T04:27:39;96436.13;;;16.01;78.95
40946;BME280;55635;50.264;11.918;2023-09-30T04:30:23;96440.22;;;15.97;78.45
40946;BME280;55635;50.264;11.918;2023-09-30T04:33:04;96431.63;;;15.67;79.87
40946;BME280;55635;50.264;11.918;2023-09-30T04:35:46;96435.03;;;15.89;78.99
40946;BME280;55635;50.264;11.918;2023-09-30T04:38:27;96422.31;;;15.56;80.49
40946;BME280;55635;50.264;11.918;2023-09-30T04:41:08;96434.53;;;15.72;79.96
40946;BME280;55635;50.264;11.918;2023-09-30T04:43:49;96422.03;;;15.79;79.35
40946;BME280;55635;50.264;11.918;2023-09-30T04:46:30;96423.72;;;15.87;78.69
40946;BME280;55635;50.264;11.918;2023-09-30T04:49:14;96422.44;;;15.76;79.30
40946;BME280;55635;50.264;11.918;2023-09-30T04:51:55;96426.59;;;15.85;79.86
40946;BME280;55635;50.264;11.918;2023-09-30T04:54:36;96436.88;;;15.88;79.34
40946;BME280;55635;50.264;11.918;2023-09-30T04:57:16;96439.78;;;15.93;78.35
40946;BME280;55635;50.264;11.918;2023-09-30T04:59:58;96436.09;;;15.94;78.19
40946;BME280;55635;50.264;11.918;2023-09-30T05:02:39;96432.56;;;15.87;79.03
40946;BME280;55635;50.264;11.918;2023-09-30T05:05:20;96440.88;;;15.99;78.40
40946;BME280;55635;50.264;11.918;2023-09-30T05:08:01;96442.03;;;15.83;78.43
40946;BME280;55635;50.264;11.918;2023-09-30T05:10:42;96436.41;;;15.71;78.83
40946;BME280;55635;50.264;11.918;2023-09-30T05:13:23;96445.09;;;15.80;79.47
40946;BME280;55635;50.264;11.918;2023-09-30T05:16:04;96451.66;;;15.84;78.94
40946;BME280;55635;50.264;11.918;2023-09-30T05:18:45;96453.78;;;15.89;78.72
40946;BME280;55635;50.264;11.918;2023-09-30T05:21:26;96454.25;;;15.99;78.16
40946;BME280;55635;50.264;11.918;2023-09-30T05:24:08;96464.47;;;15.89;77.75
40946;BME280;55635;50.264;11.918;2023-09-30T05:26:49;96465.72;;;15.93;77.79
40946;BME280;55635;50.264;11.918;2023-09-30T05:29:30;96462.66;;;15.96;77.08
40946;BME280;55635;50.264;11.918;2023-09-30T05:32:14;96465.69;;;15.86;77.87
40946;BME280;55635;50.264;11.918;2023-09-30T05:34:55;96457.69;;;15.58;77.71
40946;BME280;55635;50.264;11.918;2023-09-30T05:37:36;96463.53;;;15.75;77.38
40946;BME280;55635;50.264;11.918;2023-09-30T05:40:17;96476.50;;;15.71;77.27
40946;BME280;55635;50.264;11.918;2023-09-30T05:43:03;96487.81;;;15.73;77.43
40946;BME280;55635;50.264;11.918;2023-09-30T05:45:46;96496.84;;;15.72;76.87
40946;BME280;55635;50.264;11.918;2023-09-30T05:48:36;96488.88;;;15.79;77.10
40946;BME280;55635;50.264;11.918;2023-09-30T05:51:17;96486.16;;;15.72;77.10
40946;BME280;55635;50.264;11.918;2023-09-30T05:53:59;96495.25;;;15.78;77.05
40946;BME280;55635;50.264;11.918;2023-09-30T05:56:40;96495.72;;;15.88;75.69
40946;BME280;55635;50.264;11.918;2023-09-30T05:59:23;96504.78;;;15.87;75.91
40946;BME280;55635;50.264;11.918;2023-09-30T06:02:06;96499.06;;;15.97;76.25
40946;BME280;55635;50.264;11.918;2023-09-30T06:04:47;96498.97;;;15.77;75.81
40946;BME280;55635;50.264;11.918;2023-09-30T06:07:28;96500.19;;;15.81;76.34
40946;BME280;55635;50.264;11.918;2023-09-30T06:10:09;96501.91;;;15.89;76.62
40946;BME280;55635;50.264;11.918;2023-09-30T06:12:52;96507.25;;;15.89;75.92
40946;BME280;55635;50.264;11.918;2023-09-30T06:15:42;96510.25;;;16.07;75.09
40946;BME280;55635;50.264;11.918;2023-09-30T06:18:24;96506.56;;;16.08;75.65
40946;BME280;55635;50.264;11.918;2023-09-30T06:21:05;96512.88;;;16.00;74.91
40946;BME280;55635;50.264;11.918;2023-09-30T06:23:48;96509.03;;;16.09;74.72
40946;BME280;55635;50.264;11.918;2023-09-30T06:26:29;96522.63;;;16.08;74.18
40946;BME280;55635;50.264;11.918;2023-09-30T06:29:10;96516.28;;;15.88;74.33
40946;BME280;55635;50.264;11.918;2023-09-30T06:31:51;96528.94;;;16.00;74.41
40946;BME280;55635;50.264;11.918;2023-09-30T06:34:31;96532.72;;;16.12;73.26
40946;BME280;55635;50.264;11.918;2023-09-30T06:37:15;96522.75;;;16.00;73.81
40946;BME280;55635;50.264;11.918;2023-09-30T06:39:56;96527.31;;;16.06;74.04
40946;BME280;55635;50.264;11.918;2023-09-30T06:42:37;96523.47;;;16.15;73.19
40946;BME280;55635;50.264;11.918;2023-09-30T06:45:19;96527.19;;;16.14;73.20
40946;BME280;55635;50.264;11.918;2023-09-30T06:48:00;96523.94;;;16.25;73.41
40946;BME280;55635;50.264;11.918;2023-09-30T06:50:46;96541.31;;;16.36;73.49
40946;BME280;55635;50.264;11.918;2023-09-30T06:53:28;96548.50;;;16.35;71.79
40946;BME280;55635;50.264;11.918;2023-09-30T06:56:09;96539.59;;;16.28;72.63
40946;BME280;55635;50.264;11.918;2023-09-30T06:58:50;96548.63;;;16.20;72.55
40946;BME280;55635;50.264;11.918;2023-09-30T07:01:31;96554.25;;;16.32;72.21
40946;BME280;55635;50.264;11.918;2023-09-30T07:04:12;96554.16;;;16.53;71.77
40946;BME280;55635;50.264;11.918;2023-09-30T07:06:53;96554.97;;;16.54;72.18
40946;BME280;55635;50.264;11.918;2023-09-30T07:09:34;96545.47;;;16.51;72.15
40946;BME280;55635;50.264;11.918;2023-09-30T07:12:15;96552.59;;;16.65;70.80
40946;BME280;55635;50.264;11.918;2023-09-30T07:14:56;96550.97;;;16.77;71.41
40946;BME280;55635;50.264;11.918;2023-09-30T07:17:38;96549.56;;;16.88;70.45
40946;BME280;55635;50.264;11.918;2023-09-30T07:20:19;96533.97;;;17.11;70.41
40946;BME280;55635;50.264;11.918;2023-09-30T07:23:01;96545.78;;;17.36;69.79
40946;BME280;55635;50.264;11.918;2023-09-30T07:25:44;96542.47;;;17.54;68.72
40946;BME280;55635;50.264;11.918;2023-09-30T07:28:25;96546.19;;;17.53;68.73
40946;BME280;55635;50.264;11.918;2023-09-30T07:31:06;96549.34;;;17.76;68.18
40946;BME280;55635;50.264;11.918;2023-09-30T07:33:47;96553.88;;;17.82;67.18
40946;BME280;55635;50.264;11.918;2023-09-30T07:36:28;96566.25;;;17.97;66.79
40946;BME280;55635;50.264;11.918;2023-09-30T07:39:09;96562.94;;;17.81;66.24
40946;BME280;55635;50.264;11.918;2023-09-30T07:41:50;96563.13;;;18.00;66.45
40946;BME280;55635;50.264;11.918;2023-09-30T07:44:31;96545.56;;;18.17;65.47
40946;BME280;55635;50.264;11.918;2023-09-30T07:47:12;96544.09;;;18.21;64.99
40946;BME280;55635;50.264;11.918;2023-09-30T07:49:53;96551.88;;;18.68;63.75
40946;BME280;55635;50.264;11.918;2023-09-30T07:52:34;96554.59;;;18.99;62.73
40946;BME280;55635;50.264;11.918;2023-09-30T07:55:15;96547.63;;;18.92;61.92
40946;BME280;55635;50.264;11.918;2023-09-30T07:57:56;96549.06;;;18.94;60.14
40946;BME280;55635;50.264;11.918;2023-09-30T08:00:40;96551.06;;;19.06;59.29
40946;BME280;55635;50.264;11.918;2023-09-30T08:03:21;96553.50;;;19.14;58.88
40946;BME280;55635;50.264;11.918;2023-09-30T08:06:03;96557.78;;;19.21;59.08
40946;BME280;55635;50.264;11.918;2023-09-30T08:08:44;96550.84;;;19.07;58.49
40946;BME280;55635;50.264;11.918;2023-09-30T08:11:25;96552.94;;;19.36;58.81
40946;BME280;55635;50.264;11.918;2023-09-30T08:14:08;96550.28;;;19.92;57.24
40946;BME280;55635;50.264;11.918;2023-09-30T08:16:50;96550.09;;;20.12;55.85
40946;BME280;55635;50.264;11.918;2023-09-30T08:19:30;96547.47;;;20.85;55.49
40946;BME280;55635;50.264;11.918;2023-09-30T08:22:11;96550.31;;;20.90;55.11
40946;BME280;55635;50.264;11.918;2023-09-30T08:24:52;96548.06;;;21.35;53.46
40946;BME280;55635;50.264;11.918;2023-09-30T08:27:33;96550.94;;;22.28;54.03
40946;BME280;55635;50.264;11.918;2023-09-30T08:30:15;96543.44;;;22.41;50.71
40946;BME280;55635;50.264;11.918;2023-09-30T08:32:56;96549.19;;;22.33;49.24
40946;BME280;55635;50.264;11.918;2023-09-30T08:35:37;96558.09;;;21.99;50.13
40946;BME280;55635;50.264;11.918;2023-09-30T08:38:18;96560.56;;;22.23;48.36
40946;BME280;55635;50.264;11.918;2023-09-30T08:40:59;96561.81;;;22.91;48.29
40946;BME280;55635;50.264;11.918;2023-09-30T08:43:40;96564.81;;;23.74;47.59
40946;BME280;55635;50.264;11.918;2023-09-30T08:46:21;96561.97;;;24.14;45.79
40946;BME280;55635;50.264;11.918;2023-09-30T08:49:05;96549.28;;;24.53;44.08
40946;BME280;55635;50.264;11.918;2023-09-30T08:51:49;96561.22;;;24.35;45.00
40946;BME280;55635;50.264;11.918;2023-09-30T08:54:31;96576.00;;;23.49;44.90
40946;BME280;55635;50.264;11.918;2023-09-30T08:57:13;96576.63;;;23.00;45.99
40946;BME280;55635;50.264;11.918;2023-09-30T08:59:55;96577.03;;;22.80;46.69
40946;BME280;55635;50.264;11.918;2023-09-30T09:02:37;96570.09;;;22.84;47.58
40946;BME280;55635;50.264;11.918;2023-09-30T09:05:18;96564.53;;;23.59;46.50
40946;BME280;55635;50.264;11.918;2023-09-30T09:07:59;96566.69;;;22.42;47.21
40946;BME280;55635;50.264;11.918;2023-09-30T09:10:57;96570.44;;;22.06;47.96
40946;BME280;55635;50.264;11.918;2023-09-30T09:13:51;96561.09;;;21.79;48.18
40946;BME280;55635;50.264;11.918;2023-09-30T09:16:36;96555.63;;;21.14;50.31
40946;BME280;55635;50.264;11.918;2023-09-30T09:19:17;96559.00;;;21.40;50.03
40946;BME280;55635;50.264;11.918;2023-09-30T09:22:00;96560.06;;;21.80;49.87
40946;BME280;55635;50.264;11.918;2023-09-30T09:24:41;96556.06;;;22.99;47.68
40946;BME280;55635;50.264;11.918;2023-09-30T09:27:23;96562.03;;;23.69;46.07
40946;BME280;55635;50.264;11.918;2023-09-30T09:33:05;96566.59;;;24.85;43.42
40946;BME280;55635;50.264;11.918;2023-09-30T09:35:48;96568.94;;;24.98;44.23
40946;BME280;55635;50.264;11.918;2023-09-30T09:38:44;96565.56;;;25.13;42.42
40946;BME280;55635;50.264;11.918;2023-09-30T09:41:25;96570.00;;;23.92;43.17
40946;BME280;55635;50.264;11.918;2023-09-30T09:44:06;96581.63;;;23.59;45.20
40946;BME280;55635;50.264;11.918;2023-09-30T09:46:50;96576.56;;;22.71;45.72
40946;BME280;55635;50.264;11.918;2023-09-30T09:49:31;96576.19;;;22.80;46.76
40946;BME280;55635;50.264;11.918;2023-09-30T09:52:13;96581.16;;;23.96;45.43
40946;BME280;55635;50.264;11.918;2023-09-30T09:54:57;96583.19;;;24.33;42.39
40946;BME280;55635;50.264;11.918;2023-09-30T09:57:39;96578.41;;;24.79;41.31
40946;BME280;55635;50.264;11.918;2023-09-30T10:00:24;96564.94;;;25.27;41.84
40946;BME280;55635;50.264;11.918;2023-09-30T10:03:06;96568.19;;;25.51;39.90
40946;BME280;55635;50.264;11.918;2023-09-30T10:05:47;96564.75;;;25.87;39.75
40946;BME280;55635;50.264;11.918;2023-09-30T10:08:43;96572.13;;;26.19;39.48
40946;BME280;55635;50.264;11.918;2023-09-30T10:11:25;96569.72;;;26.22;38.35
40946;BME280;55635;50.264;11.918;2023-09-30T10:14:06;96580.06;;;26.25;37.54
40946;BME280;55635;50.264;11.918;2023-09-30T10:16:53;96566.16;;;26.59;37.23
40946;BME280;55635;50.264;11.918;2023-09-30T10:19:35;96562.38;;;27.12;36.56
40946;BME280;55635;50.264;11.918;2023-09-30T10:25:01;96560.69;;;26.54;36.77
40946;BME280;55635;50.264;11.918;2023-09-30T10:28:38;96549.91;;;26.69;37.13
40946;BME280;55635;50.264;11.918;2023-09-30T10:31:22;96549.06;;;26.63;37.53
40946;BME280;55635;50.264;11.918;2023-09-30T10:36:48;96546.59;;;26.67;36.94
40946;BME280;55635;50.264;11.918;2023-09-30T10:39:57;96548.25;;;26.68;37.15
40946;BME280;55635;50.264;11.918;2023-09-30T10:42:49;96542.50;;;27.11;35.80
40946;BME280;55635;50.264;11.918;2023-09-30T10:45:43;96546.72;;;26.82;37.14
40946;BME280;55635;50.264;11.918;2023-09-30T10:51:13;96529.47;;;26.66;37.20
40946;BME280;55635;50.264;11.918;2023-09-30T10:53:55;96535.34;;;26.95;36.16
40946;BME280;55635;50.264;11.918;2023-09-30T10:56:37;96538.03;;;26.43;35.72
40946;BME280;55635;50.264;11.918;2023-09-30T10:59:19;96543.66;;;26.73;35.67
40946;BME280;55635;50.264;11.918;2023-09-30T11:02:01;96540.78;;;26.95;35.16
40946;BME280;55635;50.264;11.918;2023-09-30T11:04:48;96544.28;;;27.47;35.19
40946;BME280;55635;50.264;11.918;2023-09-30T11:07:29;96534.19;;;27.48;33.17
40946;BME280;55635;50.264;11.918;2023-09-30T11:10:15;96540.78;;;27.72;34.00
40946;BME280;55635;50.264;11.918;2023-09-30T11:12:58;96542.44;;;27.73;33.24
40946;BME280;55635;50.264;11.918;2023-09-30T11:15:40;96538.09;;;27.97;33.41
40946;BME280;55635;50.264;11.918;2023-09-30T11:18:21;96539.44;;;28.35;33.23
40946;BME280;55635;50.264;11.918;2023-09-30T11:21:10;96535.13;;;28.19;33.19
40946;BME280;55635;50.264;11.918;2023-09-30T11:23:53;96535.13;;;28.19;33.01
40946;BME280;55635;50.264;11.918;2023-09-30T11:26:34;96531.78;;;27.87;32.94
40946;BME280;55635;50.264;11.918;2023-09-30T11:29:16;96534.25;;;28.39;33.74
40946;BME280;55635;50.264;11.918;2023-09-30T11:31:57;96524.16;;;28.39;32.73
40946;BME280;55635;50.264;11.918;2023-09-30T11:34:38;96515.94;;;28.54;31.98
40946;BME280;55635;50.264;11.918;2023-09-30T11:37:21;96523.31;;;28.74;32.58
40946;BME280;55635;50.264;11.918;2023-09-30T11:40:13;96516.63;;;29.05;32.46
40946;BME280;55635;50.264;11.918;2023-09-30T11:43:08;96516.19;;;28.78;32.31
40946;BME280;55635;50.264;11.918;2023-09-30T11:45:52;96500.03;;;28.87;32.43
40946;BME280;55635;50.264;11.918;2023-09-30T11:48:33;96503.91;;;28.76;30.13
40946;BME280;55635;50.264;11.918;2023-09-30T11:51:14;96506.06;;;28.89;31.10
40946;BME280;55635;50.264;11.918;2023-09-30T11:53:55;96503.78;;;29.06;30.87
40946;BME280;55635;50.264;11.918;2023-09-30T11:56:40;96491.75;;;29.07;31.50
40946;BME280;55635;50.264;11.918;2023-09-30T11:59:21;96496.63;;;29.20;31.99
40946;BME280;55635;50.264;11.918;2023-09-30T12:02:03;96500.47;;;29.14;31.59
40946;BME280;55635;50.264;11.918;2023-09-30T12:04:46;96503.44;;;29.17;30.36
40946;BME280;55635;50.264;11.918;2023-09-30T12:07:30;96510.72;;;28.63;31.53
40946;BME280;55635;50.264;11.918;2023-09-30T12:10:11;96515.38;;;28.73;31.84
40946;BME280;55635;50.264;11.918;2023-09-30T12:12:55;96523.94;;;29.20;32.05
40946;BME280;55635;50.264;11.918;2023-09-30T12:15:36;96517.34;;;29.31;31.66
40946;BME280;55635;50.264;11.918;2023-09-30T12:18:17;96490.66;;;29.62;31.02
40946;BME280;55635;50.264;11.918;2023-09-30T12:21:04;96482.34;;;29.38;30.10
40946;BME280;55635;50.264;11.918;2023-09-30T12:23:47;96482.34;;;29.38;30.08
40946;BME280;55635;50.264;11.918;2023-09-30T12:26:30;96484.56;;;29.21;30.93
40946;BME280;55635;50.264;11.918;2023-09-30T12:29:11;96481.03;;;28.46;31.14
40946;BME280;55635;50.264;11.918;2023-09-30T12:31:52;96489.72;;;28.74;31.14
40946;BME280;55635;50.264;11.918;2023-09-30T12:34:33;96487.06;;;27.68;32.30
40946;BME280;55635;50.264;11.918;2023-09-30T12:37:14;96486.44;;;28.72;31.47
40946;BME280;55635;50.264;11.918;2023-09-30T12:39:55;96481.72;;;28.87;31.80
40946;BME280;55635;50.264;11.918;2023-09-30T12:42:36;96483.53;;;28.28;30.78
40946;BME280;55635;50.264;11.918;2023-09-30T12:45:17;96480.22;;;28.46;32.28
40946;BME280;55635;50.264;11.918;2023-09-30T12:47:58;96483.19;;;28.65;31.27
40946;BME280;55635;50.264;11.918;2023-09-30T12:50:40;96483.03;;;29.05;31.05
40946;BME280;55635;50.264;11.918;2023-09-30T12:53:21;96478.69;;;28.99;29.99
40946;BME280;55635;50.264;11.918;2023-09-30T12:56:02;96476.56;;;28.86;29.64
40946;BME280;55635;50.264;11.918;2023-09-30T12:58:44;96475.84;;;29.24;30.87
40946;BME280;55635;50.264;11.918;2023-09-30T13:01:25;96463.25;;;28.74;30.23
40946;BME280;55635;50.264;11.918;2023-09-30T13:04:06;96461.00;;;28.81;30.92
40946;BME280;55635;50.264;11.918;2023-09-30T13:06:48;96462.81;;;29.06;30.30
40946;BME280;55635;50.264;11.918;2023-09-30T13:09:31;96468.44;;;29.30;30.65
40946;BME280;55635;50.264;11.918;2023-09-30T13:12:12;96474.72;;;28.66;29.98
40946;BME280;55635;50.264;11.918;2023-09-30T13:14:53;96468.31;;;29.01;30.86
40946;BME280;55635;50.264;11.918;2023-09-30T13:17:36;96458.00;;;28.83;29.46
40946;BME280;55635;50.264;11.918;2023-09-30T13:20:17;96455.72;;;28.16;30.34
40946;BME280;55635;50.264;11.918;2023-09-30T13:22:58;96454.53;;;28.67;29.90
40946;BME280;55635;50.264;11.918;2023-09-30T13:25:39;96458.63;;;27.08;32.48
40946;BME280;55635;50.264;11.918;2023-09-30T13:28:20;96464.88;;;26.51;32.91
40946;BME280;55635;50.264;11.918;2023-09-30T13:31:01;96469.06;;;27.46;31.92
40946;BME280;55635;50.264;11.918;2023-09-30T13:33:42;96458.19;;;27.72;31.05
40946;BME280;55635;50.264;11.918;2023-09-30T13:36:23;96453.00;;;27.75;29.78
40946;BME280;55635;50.264;11.918;2023-09-30T13:39:04;96459.84;;;28.13;29.70
40946;BME280;55635;50.264;11.918;2023-09-30T13:41:46;96462.53;;;27.47;30.01
40946;BME280;55635;50.264;11.918;2023-09-30T13:44:27;96465.81;;;28.15;29.77
40946;BME280;55635;50.264;11.918;2023-09-30T13:47:08;96467.13;;;28.38;29.38
40946;BME280;55635;50.264;11.918;2023-09-30T13:49:50;96456.97;;;28.58;28.92
40946;BME280;55635;50.264;11.918;2023-09-30T13:52:31;96448.09;;;28.13;29.13
40946;BME280;55635;50.264;11.918;2023-09-30T13:55:12;96442.06;;;27.30;29.60
40946;BME280;55635;50.264;11.918;2023-09-30T13:57:59;96442.06;;;27.95;29.17
40946;BME280;55635;50.264;11.918;2023-09-30T14:00:40;96435.78;;;28.30;28.91
40946;BME280;55635;50.264;11.918;2023-09-30T14:03:26;96439.84;;;28.33;28.98
40946;BME280;55635;50.264;11.918;2023-09-30T14:06:13;96431.16;;;28.21;28.33
40946;BME280;55635;50.264;11.918;2023-09-30T14:08:54;96434.72;;;28.21;29.42
40946;BME280;55635;50.264;11.918;2023-09-30T14:11:36;96439.06;;;28.27;28.43
40946;BME280;55635;50.264;11.918;2023-09-30T14:14:16;96433.03;;;28.40;28.81
40946;BME280;55635;50.264;11.918;2023-09-30T14:16:57;96434.16;;;28.24;28.10
40946;BME280;55635;50.264;11.918;2023-09-30T14:19:38;96437.16;;;28.23;28.45